createdAt,value
2022-07-30T00:01:18.106Z,70.50
2022-07-30T00:04:59.978Z,70.10
2022-07-30T00:08:41.817Z,70.50
2022-07-30T00:12:23.778Z,71.00
2022-07-30T00:16:05.674Z,72.00
2022-07-30T00:19:47.497Z,72.70
2022-07-30T00:23:29.326Z,72.70
2022-07-30T00:27:11.186Z,72.80
2022-07-30T00:30:56.172Z,73.50
2022-07-30T00:34:38.142Z,73.80
2022-07-30T00:38:19.970Z,74.00
2022-07-30T00:42:04.051Z,73.80
2022-07-30T00:45:46.573Z,74.70
2022-07-30T00:49:28.605Z,74.50
2022-07-30T00:53:10.530Z,75.00
2022-07-30T00:56:52.588Z,75.80
2022-07-30T01:00:34.470Z,76.80
2022-07-30T01:04:16.341Z,76.90
2022-07-30T01:07:58.150Z,77.30
2022-07-30T01:11:42.278Z,77.60
2022-07-30T01:15:24.225Z,79.10
2022-07-30T01:19:29.834Z,78.40
2022-07-30T01:23:45.568Z,79.60
2022-07-30T01:27:34.460Z,83.70
2022-07-30T01:31:17.117Z,80.60
2022-07-30T01:35:01.079Z,79.30
2022-07-30T01:38:47.834Z,79.80
2022-07-30T01:42:30.929Z,82.80
2022-07-30T01:46:14.991Z,80.50
2022-07-30T01:49:58.524Z,81.90
2022-07-30T01:53:42.920Z,81.60
2022-07-30T01:57:26.638Z,82.30
2022-07-30T02:01:08.921Z,83.70
2022-07-30T02:04:51.029Z,82.60
2022-07-30T02:08:45.629Z,83.40
2022-07-30T02:12:29.846Z,88.70
2022-07-30T02:16:17.955Z,84.70
2022-07-30T02:20:00.848Z,88.90
2022-07-30T02:23:45.528Z,86.50
2022-07-30T02:27:33.629Z,88.20
2022-07-30T02:31:21.154Z,90.00
2022-07-30T02:35:12.417Z,90.00
2022-07-30T02:38:56.592Z,90.50
2022-07-30T02:42:39.645Z,88.60
2022-07-30T02:46:24.212Z,88.80
2022-07-30T02:50:07.904Z,90.80
2022-07-30T02:53:52.057Z,90.40
2022-07-30T02:57:34.938Z,90.50
2022-07-30T03:01:19.322Z,90.50
2022-07-30T03:05:04.362Z,91.30
2022-07-30T03:08:46.977Z,91.50
2022-07-30T03:12:34.468Z,91.00
2022-07-30T03:16:18.756Z,93.00
2022-07-30T03:20:02.299Z,91.90
2022-07-30T03:23:46.786Z,91.80
2022-07-30T03:27:29.365Z,91.90
2022-07-30T03:31:11.964Z,91.70
2022-07-30T03:34:54.518Z,91.90
2022-07-30T03:38:40.928Z,92.00
2022-07-30T03:42:23.373Z,92.60
2022-07-30T03:46:06.476Z,92.60
2022-07-30T03:49:48.431Z,92.60
2022-07-30T03:53:31.530Z,92.90
2022-07-30T03:57:15.275Z,93.80
2022-07-30T04:01:02.445Z,94.00
2022-07-30T04:04:44.477Z,94.00
2022-07-30T04:08:27.836Z,94.10
2022-07-30T04:12:09.782Z,94.50
2022-07-30T04:16:40.583Z,94.20
2022-07-30T04:20:19.535Z,96.10
2022-07-30T04:24:04.036Z,94.00
2022-07-30T04:28:02.949Z,94.30
2022-07-30T04:31:46.503Z,94.60
2022-07-30T04:35:51.175Z,94.80
2022-07-30T04:39:32.109Z,94.90
2022-07-30T04:43:14.057Z,94.60
2022-07-30T04:46:55.936Z,94.80
2022-07-30T04:50:42.688Z,95.00
2022-07-30T04:54:25.468Z,96.30
2022-07-30T04:58:10.732Z,95.40
2022-07-30T05:01:56.025Z,95.30
2022-07-30T05:05:38.257Z,95.90
2022-07-30T05:09:20.758Z,95.50
2022-07-30T05:13:02.576Z,95.40
2022-07-30T05:16:44.681Z,95.20
2022-07-30T05:20:27.131Z,95.50
2022-07-30T05:24:09.207Z,95.40
2022-07-30T05:27:51.703Z,95.40
2022-07-30T05:31:33.597Z,95.60
2022-07-30T05:35:15.471Z,95.70
2022-07-30T05:38:57.487Z,95.70
2022-07-30T05:42:39.358Z,95.60
2022-07-30T05:46:21.553Z,95.70
2022-07-30T05:50:05.172Z,95.50
2022-07-30T05:53:47.842Z,95.50
2022-07-30T05:57:29.774Z,95.60
2022-07-30T06:01:12.079Z,96.00
2022-07-30T06:04:54.162Z,95.80
2022-07-30T06:08:36.205Z,95.90
2022-07-30T06:12:18.821Z,95.80
2022-07-30T06:16:00.672Z,95.70
2022-07-30T06:19:42.557Z,95.60
2022-07-30T06:23:24.484Z,95.10
2022-07-30T06:27:06.404Z,94.80
2022-07-30T06:30:48.922Z,94.50
2022-07-30T06:34:30.787Z,94.40
2022-07-30T06:38:12.601Z,94.20
2022-07-30T06:41:54.500Z,94.10
2022-07-30T06:45:36.463Z,93.70
2022-07-30T06:49:18.327Z,93.40
2022-07-30T06:53:00.247Z,93.20
2022-07-30T06:56:42.099Z,93.10
2022-07-30T07:00:23.975Z,93.10
2022-07-30T07:04:05.911Z,92.90
2022-07-30T07:07:58.369Z,92.90
2022-07-30T07:11:41.226Z,92.80
2022-07-30T07:15:37.319Z,92.80
2022-07-30T07:20:01.736Z,92.80
2022-07-30T07:23:21.324Z,92.60
2022-07-30T07:27:03.536Z,92.30
2022-07-30T07:30:46.197Z,92.20
2022-07-30T07:34:28.182Z,92.20
2022-07-30T07:38:10.066Z,92.40
2022-07-30T07:41:51.892Z,92.50
2022-07-30T07:45:34.258Z,92.30
2022-07-30T07:49:16.225Z,92.10
2022-07-30T07:53:00.310Z,92.10
2022-07-30T07:56:42.209Z,91.80
2022-07-30T08:00:25.307Z,91.80
2022-07-30T08:04:10.181Z,92.10
2022-07-30T08:07:52.420Z,92.40
2022-07-30T08:11:34.431Z,92.00
2022-07-30T08:15:21.552Z,92.00
2022-07-30T08:19:04.044Z,92.40
2022-07-30T08:22:45.817Z,92.60
2022-07-30T08:26:27.645Z,92.50
2022-07-30T08:30:11.061Z,92.80
2022-07-30T08:33:52.848Z,93.30
2022-07-30T08:37:34.866Z,94.20
2022-07-30T08:41:21.439Z,93.10
2022-07-30T08:45:06.335Z,92.40
2022-07-30T08:48:51.375Z,90.00
2022-07-30T08:52:35.802Z,87.00
2022-07-30T08:56:18.117Z,84.80
2022-07-30T09:00:01.804Z,84.50
2022-07-30T09:03:44.306Z,84.40
2022-07-30T09:07:26.658Z,84.80
2022-07-30T09:11:08.938Z,86.00
2022-07-30T09:15:12.444Z,85.50
2022-07-30T09:18:55.490Z,84.70
2022-07-30T09:23:05.875Z,85.80
2022-07-30T09:27:07.476Z,85.30
2022-07-30T09:30:54.322Z,84.00
2022-07-30T09:34:40.048Z,83.00
2022-07-30T09:38:25.790Z,82.00
2022-07-30T09:42:29.039Z,82.20
2022-07-30T09:46:19.048Z,78.90
2022-07-30T09:50:07.070Z,78.60
2022-07-30T09:54:01.774Z,75.80
2022-07-30T09:58:05.410Z,74.20
2022-07-30T10:02:01.025Z,74.40
2022-07-30T10:06:03.678Z,74.90
2022-07-30T10:09:51.286Z,75.40
2022-07-30T10:13:34.991Z,75.70
2022-07-30T10:17:17.531Z,76.20
2022-07-30T10:21:05.740Z,75.60
2022-07-30T10:24:55.384Z,75.20
2022-07-30T10:28:47.187Z,75.00
2022-07-30T10:32:31.579Z,76.10
2022-07-30T10:36:14.265Z,75.70
2022-07-30T10:40:12.475Z,76.10
2022-07-30T10:44:20.193Z,75.60
2022-07-30T10:48:04.360Z,74.90
2022-07-30T10:51:52.412Z,76.10
2022-07-30T10:55:37.597Z,75.40
2022-07-30T10:59:22.397Z,74.40
2022-07-30T11:03:23.596Z,74.00
2022-07-30T11:07:23.628Z,73.70
2022-07-30T11:11:59.542Z,74.30
2022-07-30T11:15:44.590Z,73.40
2022-07-30T11:19:56.105Z,74.20
2022-07-30T11:23:39.978Z,77.50
2022-07-30T11:27:41.125Z,77.90
2022-07-30T11:32:07.392Z,74.90
2022-07-30T11:35:36.926Z,69.70
2022-07-30T11:39:19.154Z,68.50
2022-07-30T11:43:36.007Z,70.10
2022-07-30T11:47:19.030Z,69.80
2022-07-30T11:51:03.954Z,68.50
2022-07-30T11:54:54.098Z,69.80
2022-07-30T11:58:38.359Z,70.70
2022-07-30T12:02:26.277Z,71.00
2022-07-30T12:06:17.929Z,69.10
2022-07-30T12:10:13.734Z,68.40
2022-07-30T12:14:01.613Z,68.50
2022-07-30T12:17:46.626Z,68.50
2022-07-30T12:21:28.558Z,69.90
2022-07-30T12:25:11.246Z,69.50
2022-07-30T12:28:55.064Z,78.30
2022-07-30T12:32:37.615Z,74.60
2022-07-30T12:36:28.102Z,72.40
2022-07-30T12:40:15.128Z,73.60
2022-07-30T12:43:57.108Z,73.30
2022-07-30T12:47:38.990Z,77.60
2022-07-30T12:51:27.203Z,78.00
2022-07-30T12:55:12.295Z,74.70
2022-07-30T12:58:56.911Z,74.50
2022-07-30T13:02:38.706Z,74.60
2022-07-30T13:06:25.599Z,72.90
2022-07-30T13:10:12.465Z,68.90
2022-07-30T13:13:54.499Z,67.50
2022-07-30T13:17:37.967Z,66.40
2022-07-30T13:21:19.925Z,65.50
2022-07-30T13:25:01.731Z,64.60
2022-07-30T13:28:43.895Z,65.80
2022-07-30T13:32:25.840Z,65.90
2022-07-30T13:36:07.985Z,66.80
2022-07-30T13:39:49.771Z,66.50
2022-07-30T13:43:33.533Z,65.80
2022-07-30T13:47:16.099Z,65.90
2022-07-30T13:50:58.151Z,65.80
2022-07-30T13:54:40.143Z,66.20
2022-07-30T13:58:23.069Z,69.30
2022-07-30T14:02:05.526Z,69.30
2022-07-30T14:05:48.316Z,62.10
2022-07-30T14:09:30.177Z,60.10
2022-07-30T14:13:16.039Z,59.10
2022-07-30T14:17:04.279Z,60.50
2022-07-30T14:20:48.900Z,58.80
2022-07-30T14:24:30.943Z,58.00
2022-07-30T14:28:13.258Z,56.50
2022-07-30T14:31:56.245Z,56.50
2022-07-30T14:35:39.062Z,57.40
2022-07-30T14:39:21.417Z,56.70
2022-07-30T14:43:03.280Z,58.30
2022-07-30T14:46:52.463Z,58.80
2022-07-30T14:50:46.582Z,58.30
2022-07-30T14:54:36.508Z,58.10
2022-07-30T14:58:18.348Z,58.80
2022-07-30T15:02:00.566Z,59.40
2022-07-30T15:05:42.835Z,59.50
2022-07-30T15:09:24.867Z,60.60
2022-07-30T15:13:06.726Z,60.40
2022-07-30T15:16:53.634Z,60.20
2022-07-30T15:20:38.158Z,59.70
2022-07-30T15:24:23.188Z,58.50
2022-07-30T15:28:11.066Z,56.60
2022-07-30T15:32:10.848Z,54.20
2022-07-30T15:36:11.872Z,54.80
2022-07-30T15:44:12.532Z,52.90
2022-07-30T15:48:18.831Z,49.30
2022-07-30T15:52:11.635Z,48.70
2022-07-30T15:55:57.853Z,49.00
2022-07-30T16:00:05.871Z,48.00
2022-07-30T16:03:56.833Z,47.00
2022-07-30T16:07:52.435Z,49.00
2022-07-30T16:12:03.047Z,48.60
2022-07-30T16:15:55.659Z,48.50
2022-07-30T16:19:45.758Z,48.50
2022-07-30T16:23:39.524Z,49.40
2022-07-30T16:27:47.888Z,50.30
2022-07-30T16:31:38.204Z,51.60
2022-07-30T16:35:36.854Z,52.30
2022-07-30T16:39:50.870Z,53.90
2022-07-30T16:43:56.507Z,55.00
2022-07-30T16:47:41.831Z,56.00
2022-07-30T16:51:31.319Z,55.70
2022-07-30T16:55:17.039Z,56.90
2022-07-30T16:59:09.484Z,57.90
2022-07-30T17:02:57.550Z,59.20
2022-07-30T17:06:42.737Z,59.40
2022-07-30T17:10:27.855Z,59.90
2022-07-30T17:14:13.295Z,59.90
2022-07-30T17:17:58.158Z,59.00
2022-07-30T17:21:43.703Z,58.80
2022-07-30T17:25:29.103Z,59.10
2022-07-30T17:29:14.923Z,59.70
2022-07-30T17:32:57.010Z,60.60
2022-07-30T17:36:40.233Z,61.20
2022-07-30T17:40:28.645Z,62.00
2022-07-30T17:44:12.941Z,62.60
2022-07-30T17:47:54.774Z,63.20
2022-07-30T17:51:37.149Z,63.50
2022-07-30T17:55:19.044Z,64.70
2022-07-30T17:59:00.889Z,65.20
2022-07-30T18:02:42.751Z,66.00
2022-07-30T18:06:24.974Z,66.80
2022-07-30T18:10:07.282Z,67.50
2022-07-30T18:13:49.149Z,68.50
2022-07-30T18:17:30.950Z,68.80
2022-07-30T18:21:12.866Z,69.40
2022-07-30T18:24:54.656Z,70.30
2022-07-30T18:28:36.979Z,70.40
2022-07-30T18:32:18.806Z,71.70
2022-07-30T18:36:00.760Z,72.20
2022-07-30T18:39:42.593Z,72.70
2022-07-30T18:43:26.070Z,73.30
2022-07-30T18:47:07.926Z,73.80
2022-07-30T18:50:50.418Z,74.10
2022-07-30T18:54:32.274Z,74.30
2022-07-30T18:58:14.182Z,74.80
2022-07-30T19:01:56.120Z,75.10
2022-07-30T19:05:38.483Z,75.70
2022-07-30T19:09:20.262Z,75.90
2022-07-30T19:13:03.430Z,76.30
2022-07-30T19:16:46.062Z,77.40
2022-07-30T19:20:29.196Z,77.60
2022-07-30T19:24:11.015Z,77.90
2022-07-30T19:27:52.945Z,78.40
2022-07-30T19:31:35.551Z,79.00
2022-07-30T19:35:17.436Z,79.50
2022-07-30T19:38:59.202Z,79.60
2022-07-30T19:42:52.622Z,79.80
2022-07-30T19:46:38.603Z,79.90
2022-07-30T19:50:27.144Z,80.70
2022-07-30T19:54:09.520Z,81.00
2022-07-30T19:57:54.097Z,81.50
2022-07-30T20:01:40.148Z,82.20
2022-07-30T20:05:24.811Z,82.70
2022-07-30T20:09:10.261Z,82.90
2022-07-30T20:12:56.983Z,83.40
2022-07-30T20:16:38.897Z,83.50
2022-07-30T20:20:26.150Z,84.20
2022-07-30T20:24:08.598Z,84.50
2022-07-30T20:27:51.072Z,85.20
2022-07-30T20:31:33.288Z,85.50
2022-07-30T20:35:17.274Z,86.10
2022-07-30T20:39:02.025Z,86.60
2022-07-30T20:42:47.433Z,86.60
2022-07-30T20:46:31.835Z,87.60
2022-07-30T20:50:14.582Z,87.80
2022-07-30T20:53:56.512Z,88.20
2022-07-30T20:57:51.428Z,88.80
2022-07-30T21:01:44.133Z,89.10
2022-07-30T21:05:26.941Z,89.70
2022-07-30T21:09:09.021Z,90.20
2022-07-30T21:12:58.557Z,90.40
2022-07-30T21:16:45.804Z,90.90
2022-07-30T21:20:28.337Z,90.70
2022-07-30T21:24:14.389Z,91.10
2022-07-30T21:27:56.240Z,91.30
2022-07-30T21:32:01.265Z,91.40
2022-07-30T21:35:41.289Z,91.70
2022-07-30T21:43:30.147Z,92.20
2022-07-30T21:47:13.226Z,93.20
2022-07-30T21:50:56.285Z,92.90
2022-07-30T21:54:48.290Z,93.20
2022-07-30T21:58:30.614Z,93.20
2022-07-30T22:02:18.723Z,94.10
2022-07-30T22:06:01.598Z,93.80
2022-07-30T22:09:43.416Z,94.10
2022-07-30T22:13:25.672Z,94.20
2022-07-30T22:17:22.475Z,94.20
2022-07-30T22:21:14.477Z,94.70
2022-07-30T22:24:58.182Z,94.90
2022-07-30T22:28:41.656Z,95.00
2022-07-30T22:32:24.479Z,95.10
2022-07-30T22:36:08.327Z,96.20
2022-07-30T22:39:54.265Z,95.80
2022-07-30T22:43:41.002Z,96.40
2022-07-30T22:47:51.086Z,96.30
2022-07-30T22:51:25.764Z,96.70
2022-07-30T22:55:28.215Z,97.00
2022-07-30T22:59:11.551Z,96.90
2022-07-30T23:02:53.594Z,96.80
2022-07-30T23:06:37.879Z,97.10
2022-07-30T23:10:25.752Z,97.00
2022-07-30T23:12:32.235Z,91.90
2022-07-30T23:14:10.845Z,97.10
2022-07-30T23:17:53.210Z,97.60
2022-07-30T23:21:35.135Z,97.80
2022-07-30T23:25:17.354Z,98.10
2022-07-30T23:28:59.193Z,98.20
2022-07-30T23:32:41.078Z,98.20
2022-07-30T23:36:23.718Z,98.50
2022-07-30T23:40:07.499Z,98.70
2022-07-30T23:43:49.310Z,98.70
2022-07-30T23:47:51.267Z,99.00
2022-07-30T23:51:33.547Z,99.00
2022-07-30T23:55:15.788Z,99.10
2022-07-30T23:58:58.235Z,99.40
